sensor_id;sensor_type;location;lat;lon;timestamp;pressure;altitude;pressure_sealevel;temperature;humidity
47742;BME280;33504;52.066;6.096;2023-08-30T00:00:56;100789.42;;;15.78;47.14
47742;BME280;33504;52.066;6.096;2023-08-30T00:03:24;100787.04;;;15.57;47.38
47742;BME280;33504;52.066;6.096;2023-08-30T00:05:51;100782.99;;;15.63;47.41
47742;BME280;33504;52.066;6.096;2023-08-30T00:08:18;100779.22;;;16.19;47.41
47742;BME280;33504;52.066;6.096;2023-08-30T00:10:46;100774.89;;;16.05;47.28
47742;BME280;33504;52.066;6.096;2023-08-30T00:13:13;100774.17;;;15.88;47.33
47742;BME280;33504;52.066;6.096;2023-08-30T00:15:40;100772.34;;;16.25;47.43
47742;BME280;33504;52.066;6.096;2023-08-30T00:18:06;100769.60;;;16.11;47.18
47742;BME280;33504;52.066;6.096;2023-08-30T00:20:34;100762.63;;;16.17;47.14
47742;BME280;33504;52.066;6.096;2023-08-30T00:23:01;100762.62;;;16.26;47.08
47742;BME280;33504;52.066;6.096;2023-08-30T00:25:28;100759.01;;;16.29;47.04
47742;BME280;33504;52.066;6.096;2023-08-30T00:27:55;100760.46;;;16.40;46.90
47742;BME280;33504;52.066;6.096;2023-08-30T00:30:22;100759.47;;;16.45;46.88
47742;BME280;33504;52.066;6.096;2023-08-30T00:32:49;100761.06;;;16.48;46.87
47742;BME280;33504;52.066;6.096;2023-08-30T00:35:16;100762.21;;;16.48;46.72
47742;BME280;33504;52.066;6.096;2023-08-30T00:37:43;100757.53;;;16.46;46.56
47742;BME280;33504;52.066;6.096;2023-08-30T00:40:11;100754.40;;;16.49;46.57
47742;BME280;33504;52.066;6.096;2023-08-30T00:42:38;100750.01;;;16.49;46.56
47742;BME280;33504;52.066;6.096;2023-08-30T00:45:06;100748.47;;;16.52;46.66
47742;BME280;33504;52.066;6.096;2023-08-30T00:47:33;100754.27;;;16.52;46.55
47742;BME280;33504;52.066;6.096;2023-08-30T00:50:01;100757.67;;;16.51;46.74
47742;BME280;33504;52.066;6.096;2023-08-30T00:52:28;100760.95;;;16.19;46.72
47742;BME280;33504;52.066;6.096;2023-08-30T00:54:55;100760.14;;;16.19;47.11
47742;BME280;33504;52.066;6.096;2023-08-30T00:57:22;100763.93;;;16.00;47.28
47742;BME280;33504;52.066;6.096;2023-08-30T00:59:50;100762.60;;;15.99;47.14
47742;BME280;33504;52.066;6.096;2023-08-30T01:02:18;100758.42;;;16.16;46.78
47742;BME280;33504;52.066;6.096;2023-08-30T01:04:46;100758.76;;;16.19;46.74
47742;BME280;33504;52.066;6.096;2023-08-30T01:07:12;100755.95;;;16.05;46.58
47742;BME280;33504;52.066;6.096;2023-08-30T01:09:39;100756.70;;;16.27;46.87
47742;BME280;33504;52.066;6.096;2023-08-30T01:12:11;100753.76;;;16.31;46.72
47742;BME280;33504;52.066;6.096;2023-08-30T01:14:45;100748.02;;;16.24;46.61
47742;BME280;33504;52.066;6.096;2023-08-30T01:17:17;100747.43;;;16.12;46.62
47742;BME280;33504;52.066;6.096;2023-08-30T01:19:51;100745.27;;;16.47;46.66
47742;BME280;33504;52.066;6.096;2023-08-30T01:22:29;100741.43;;;16.28;46.92
47742;BME280;33504;52.066;6.096;2023-08-30T01:25:15;100739.21;;;16.40;46.67
47742;BME280;33504;52.066;6.096;2023-08-30T01:27:45;100738.04;;;16.45;46.59
47742;BME280;33504;52.066;6.096;2023-08-30T01:30:15;100739.32;;;16.34;46.44
47742;BME280;33504;52.066;6.096;2023-08-30T01:32:43;100741.85;;;16.37;46.47
47742;BME280;33504;52.066;6.096;2023-08-30T01:35:11;100739.47;;;16.19;46.53
47742;BME280;33504;52.066;6.096;2023-08-30T01:37:39;100739.76;;;16.08;46.64
47742;BME280;33504;52.066;6.096;2023-08-30T01:40:08;100745.62;;;16.03;46.81
47742;BME280;33504;52.066;6.096;2023-08-30T01:42:36;100747.07;;;16.05;46.84
47742;BME280;33504;52.066;6.096;2023-08-30T01:45:08;100744.23;;;16.10;46.85
47742;BME280;33504;52.066;6.096;2023-08-30T01:47:37;100740.48;;;16.02;46.80
47742;BME280;33504;52.066;6.096;2023-08-30T01:50:06;100740.35;;;15.93;46.98
47742;BME280;33504;52.066;6.096;2023-08-30T01:52:33;100736.05;;;15.96;46.84
47742;BME280;33504;52.066;6.096;2023-08-30T01:55:02;100736.15;;;15.85;46.93
47742;BME280;33504;52.066;6.096;2023-08-30T01:57:30;100732.58;;;15.84;46.93
47742;BME280;33504;52.066;6.096;2023-08-30T01:59:56;100736.79;;;15.86;46.96
47742;BME280;33504;52.066;6.096;2023-08-30T02:02:23;100735.47;;;15.67;47.15
47742;BME280;33504;52.066;6.096;2023-08-30T02:04:50;100734.76;;;15.61;47.11
47742;BME280;33504;52.066;6.096;2023-08-30T02:07:21;100734.78;;;16.12;47.11
47742;BME280;33504;52.066;6.096;2023-08-30T02:09:52;100730.23;;;15.90;47.25
47742;BME280;33504;52.066;6.096;2023-08-30T02:12:24;100728.89;;;15.61;47.24
47742;BME280;33504;52.066;6.096;2023-08-30T02:14:55;100725.66;;;15.90;47.27
47742;BME280;33504;52.066;6.096;2023-08-30T02:17:23;100722.62;;;15.47;47.48
47742;BME280;33504;52.066;6.096;2023-08-30T02:19:50;100722.10;;;15.52;47.31
47742;BME280;33504;52.066;6.096;2023-08-30T02:22:18;100723.86;;;15.72;47.49
47742;BME280;33504;52.066;6.096;2023-08-30T02:24:45;100726.17;;;15.35;47.78
47742;BME280;33504;52.066;6.096;2023-08-30T02:27:12;100726.36;;;15.53;47.46
47742;BME280;33504;52.066;6.096;2023-08-30T02:29:40;100721.89;;;15.44;47.50
47742;BME280;33504;52.066;6.096;2023-08-30T02:32:07;100718.33;;;15.78;47.40
47742;BME280;33504;52.066;6.096;2023-08-30T02:34:34;100719.01;;;15.90;47.15
47742;BME280;33504;52.066;6.096;2023-08-30T02:37:01;100717.16;;;15.63;47.14
47742;BME280;33504;52.066;6.096;2023-08-30T02:39:28;100714.10;;;15.67;47.15
47742;BME280;33504;52.066;6.096;2023-08-30T02:41:54;100709.52;;;15.72;46.94
47742;BME280;33504;52.066;6.096;2023-08-30T02:44:21;100704.73;;;15.80;47.10
47742;BME280;33504;52.066;6.096;2023-08-30T02:46:48;100701.40;;;15.76;46.87
47742;BME280;33504;52.066;6.096;2023-08-30T02:49:15;100701.60;;;15.52;47.18
47742;BME280;33504;52.066;6.096;2023-08-30T02:51:42;100699.49;;;15.54;47.18
47742;BME280;33504;52.066;6.096;2023-08-30T02:54:09;100696.72;;;15.58;47.07
47742;BME280;33504;52.066;6.096;2023-08-30T02:56:36;100694.97;;;16.24;46.92
47742;BME280;33504;52.066;6.096;2023-08-30T02:59:02;100690.01;;;15.77;46.86
47742;BME280;33504;52.066;6.096;2023-08-30T03:01:29;100688.71;;;15.95;46.81
47742;BME280;33504;52.066;6.096;2023-08-30T03:03:56;100684.07;;;15.89;46.59
47742;BME280;33504;52.066;6.096;2023-08-30T03:06:24;100684.33;;;15.75;46.47
47742;BME280;33504;52.066;6.096;2023-08-30T03:08:53;100683.80;;;15.95;46.99
47742;BME280;33504;52.066;6.096;2023-08-30T03:11:20;100686.09;;;15.76;46.53
47742;BME280;33504;52.066;6.096;2023-08-30T03:13:47;100683.63;;;15.90;46.30
47742;BME280;33504;52.066;6.096;2023-08-30T03:16:15;100683.22;;;15.96;46.24
47742;BME280;33504;52.066;6.096;2023-08-30T03:18:43;100683.01;;;16.03;46.32
47742;BME280;33504;52.066;6.096;2023-08-30T03:21:11;100680.34;;;16.09;46.33
47742;BME280;33504;52.066;6.096;2023-08-30T03:23:39;100676.66;;;16.18;46.35
47742;BME280;33504;52.066;6.096;2023-08-30T03:26:10;100670.85;;;16.03;46.59
47742;BME280;33504;52.066;6.096;2023-08-30T03:28:38;100668.39;;;16.15;46.84
47742;BME280;33504;52.066;6.096;2023-08-30T03:31:12;100662.16;;;16.01;47.50
47742;BME280;33504;52.066;6.096;2023-08-30T03:33:38;100657.47;;;15.92;47.73
47742;BME280;33504;52.066;6.096;2023-08-30T03:36:05;100651.77;;;16.04;47.60
47742;BME280;33504;52.066;6.096;2023-08-30T03:38:33;100646.46;;;16.10;47.61
47742;BME280;33504;52.066;6.096;2023-08-30T03:40:59;100639.74;;;16.10;47.53
47742;BME280;33504;52.066;6.096;2023-08-30T03:43:27;100637.35;;;16.08;47.58
47742;BME280;33504;52.066;6.096;2023-08-30T03:45:54;100636.80;;;16.09;47.59
47742;BME280;33504;52.066;6.096;2023-08-30T03:48:21;100633.41;;;16.03;47.53
47742;BME280;33504;52.066;6.096;2023-08-30T03:50:48;100629.13;;;16.01;47.62
47742;BME280;33504;52.066;6.096;2023-08-30T03:53:15;100627.42;;;16.28;47.70
47742;BME280;33504;52.066;6.096;2023-08-30T03:55:42;100624.02;;;15.99;47.73
47742;BME280;33504;52.066;6.096;2023-08-30T03:58:09;100620.08;;;15.91;47.90
47742;BME280;33504;52.066;6.096;2023-08-30T04:00:37;100615.20;;;16.20;47.80
47742;BME280;33504;52.066;6.096;2023-08-30T04:03:04;100613.55;;;15.94;47.76
47742;BME280;33504;52.066;6.096;2023-08-30T04:05:32;100613.36;;;15.91;47.72
47742;BME280;33504;52.066;6.096;2023-08-30T04:08:00;100610.28;;;16.18;47.73
47742;BME280;33504;52.066;6.096;2023-08-30T04:10:27;100607.59;;;15.87;47.73
47742;BME280;33504;52.066;6.096;2023-08-30T04:12:54;100605.45;;;15.83;47.63
47742;BME280;33504;52.066;6.096;2023-08-30T04:15:21;100602.66;;;15.75;47.63
47742;BME280;33504;52.066;6.096;2023-08-30T04:17:48;100598.12;;;15.68;47.62
47742;BME280;33504;52.066;6.096;2023-08-30T04:20:16;100596.19;;;15.63;47.89
47742;BME280;33504;52.066;6.096;2023-08-30T04:22:43;100595.98;;;15.60;47.82
47742;BME280;33504;52.066;6.096;2023-08-30T04:25:10;100595.69;;;15.54;47.74
47742;BME280;33504;52.066;6.096;2023-08-30T04:27:37;100593.95;;;15.47;47.87
47742;BME280;33504;52.066;6.096;2023-08-30T04:30:05;100589.17;;;15.87;47.79
47742;BME280;33504;52.066;6.096;2023-08-30T04:32:32;100589.83;;;15.30;47.88
47742;BME280;33504;52.066;6.096;2023-08-30T04:34:59;100583.86;;;15.24;48.08
47742;BME280;33504;52.066;6.096;2023-08-30T04:37:30;100582.57;;;15.21;48.01
47742;BME280;33504;52.066;6.096;2023-08-30T04:39:58;100580.99;;;15.64;48.03
47742;BME280;33504;52.066;6.096;2023-08-30T04:42:25;100579.02;;;15.36;48.06
47742;BME280;33504;52.066;6.096;2023-08-30T04:44:52;100579.73;;;15.33;48.02
47742;BME280;33504;52.066;6.096;2023-08-30T04:47:19;100579.89;;;15.32;48.01
47742;BME280;33504;52.066;6.096;2023-08-30T04:49:50;100576.95;;;15.24;48.02
47742;BME280;33504;52.066;6.096;2023-08-30T04:52:17;100576.16;;;15.41;48.05
47742;BME280;33504;52.066;6.096;2023-08-30T04:54:44;100575.17;;;15.33;48.26
47742;BME280;33504;52.066;6.096;2023-08-30T04:57:12;100576.74;;;15.08;48.16
47742;BME280;33504;52.066;6.096;2023-08-30T04:59:39;100573.86;;;15.25;48.22
47742;BME280;33504;52.066;6.096;2023-08-30T05:02:05;100570.05;;;15.15;48.36
47742;BME280;33504;52.066;6.096;2023-08-30T05:04:33;100568.31;;;15.14;48.38
47742;BME280;33504;52.066;6.096;2023-08-30T05:07:00;100572.61;;;14.89;48.33
47742;BME280;33504;52.066;6.096;2023-08-30T05:09:27;100571.03;;;14.58;48.42
47742;BME280;33504;52.066;6.096;2023-08-30T05:11:54;100576.86;;;14.95;48.41
47742;BME280;33504;52.066;6.096;2023-08-30T05:14:21;100574.70;;;14.96;48.43
47742;BME280;33504;52.066;6.096;2023-08-30T05:16:48;100573.64;;;14.80;48.20
47742;BME280;33504;52.066;6.096;2023-08-30T05:19:16;100576.17;;;15.02;48.21
47742;BME280;33504;52.066;6.096;2023-08-30T05:21:43;100578.18;;;14.92;48.33
47742;BME280;33504;52.066;6.096;2023-08-30T05:24:10;100575.21;;;14.69;48.70
47742;BME280;33504;52.066;6.096;2023-08-30T05:26:38;100570.52;;;14.69;48.73
47742;BME280;33504;52.066;6.096;2023-08-30T05:29:05;100564.88;;;14.60;49.05
47742;BME280;33504;52.066;6.096;2023-08-30T05:31:32;100560.07;;;14.84;48.73
47742;BME280;33504;52.066;6.096;2023-08-30T05:33:59;100561.07;;;14.75;48.86
47742;BME280;33504;52.066;6.096;2023-08-30T05:36:26;100559.12;;;14.93;48.63
47742;BME280;33504;52.066;6.096;2023-08-30T05:38:53;100557.16;;;14.71;48.62
47742;BME280;33504;52.066;6.096;2023-08-30T05:41:21;100555.85;;;15.08;48.39
47742;BME280;33504;52.066;6.096;2023-08-30T05:43:48;100554.41;;;15.24;48.22
47742;BME280;33504;52.066;6.096;2023-08-30T05:46:15;100552.99;;;15.38;48.07
47742;BME280;33504;52.066;6.096;2023-08-30T05:48:42;100555.76;;;15.28;48.20
47742;BME280;33504;52.066;6.096;2023-08-30T05:51:09;100555.94;;;15.39;48.29
47742;BME280;33504;52.066;6.096;2023-08-30T05:53:36;100556.45;;;15.49;48.23
47742;BME280;33504;52.066;6.096;2023-08-30T05:56:04;100555.84;;;15.48;48.50
47742;BME280;33504;52.066;6.096;2023-08-30T05:58:31;100550.81;;;15.30;48.81
47742;BME280;33504;52.066;6.096;2023-08-30T06:00:58;100547.92;;;15.51;48.47
47742;BME280;33504;52.066;6.096;2023-08-30T06:03:25;100547.49;;;15.49;48.23
47742;BME280;33504;52.066;6.096;2023-08-30T06:05:52;100546.17;;;15.69;48.23
47742;BME280;33504;52.066;6.096;2023-08-30T06:08:19;100544.39;;;15.48;48.51
47742;BME280;33504;52.066;6.096;2023-08-30T06:10:46;100541.56;;;15.16;48.44
47742;BME280;33504;52.066;6.096;2023-08-30T06:13:14;100541.55;;;15.71;48.18
47742;BME280;33504;52.066;6.096;2023-08-30T06:15:40;100535.15;;;15.58;48.66
47742;BME280;33504;52.066;6.096;2023-08-30T06:18:08;100528.78;;;15.61;47.98
47742;BME280;33504;52.066;6.096;2023-08-30T06:20:39;100527.83;;;16.10;48.21
47742;BME280;33504;52.066;6.096;2023-08-30T06:23:06;100526.49;;;15.88;47.87
47742;BME280;33504;52.066;6.096;2023-08-30T06:25:33;100524.94;;;16.07;47.49
47742;BME280;33504;52.066;6.096;2023-08-30T06:28:00;100526.74;;;16.11;47.52
47742;BME280;33504;52.066;6.096;2023-08-30T06:30:27;100528.15;;;16.24;47.45
47742;BME280;33504;52.066;6.096;2023-08-30T06:32:54;100528.57;;;16.43;47.38
47742;BME280;33504;52.066;6.096;2023-08-30T06:35:22;100529.89;;;16.66;47.37
47742;BME280;33504;52.066;6.096;2023-08-30T06:37:49;100528.92;;;16.63;47.46
47742;BME280;33504;52.066;6.096;2023-08-30T06:40:17;100532.61;;;16.44;47.63
47742;BME280;33504;52.066;6.096;2023-08-30T06:42:43;100528.08;;;16.15;48.25
47742;BME280;33504;52.066;6.096;2023-08-30T06:45:11;100522.98;;;16.15;48.12
47742;BME280;33504;52.066;6.096;2023-08-30T06:47:37;100518.69;;;16.39;47.97
47742;BME280;33504;52.066;6.096;2023-08-30T06:50:06;100520.50;;;16.35;48.01
47742;BME280;33504;52.066;6.096;2023-08-30T06:52:33;100518.47;;;16.16;48.26
47742;BME280;33504;52.066;6.096;2023-08-30T06:55:00;100517.26;;;16.33;48.13
47742;BME280;33504;52.066;6.096;2023-08-30T06:57:27;100514.88;;;16.63;47.91
47742;BME280;33504;52.066;6.096;2023-08-30T06:59:54;100517.02;;;16.60;47.94
47742;BME280;33504;52.066;6.096;2023-08-30T07:02:21;100518.37;;;16.35;48.12
47742;BME280;33504;52.066;6.096;2023-08-30T07:04:49;100517.29;;;16.25;48.87
47742;BME280;33504;52.066;6.096;2023-08-30T07:07:16;100517.13;;;16.62;48.52
47742;BME280;33504;52.066;6.096;2023-08-30T07:09:43;100518.03;;;16.54;48.31
47742;BME280;33504;52.066;6.096;2023-08-30T07:12:10;100511.87;;;16.90;48.43
47742;BME280;33504;52.066;6.096;2023-08-30T07:14:37;100512.87;;;16.84;48.15
47742;BME280;33504;52.066;6.096;2023-08-30T07:17:04;100513.39;;;17.03;48.37
47742;BME280;33504;52.066;6.096;2023-08-30T07:19:31;100510.58;;;16.89;48.33
47742;BME280;33504;52.066;6.096;2023-08-30T07:21:58;100514.52;;;16.81;48.39
47742;BME280;33504;52.066;6.096;2023-08-30T07:24:25;100516.29;;;16.72;48.45
47742;BME280;33504;52.066;6.096;2023-08-30T07:26:52;100516.94;;;16.46;48.72
47742;BME280;33504;52.066;6.096;2023-08-30T07:29:19;100517.95;;;16.79;48.67
47742;BME280;33504;52.066;6.096;2023-08-30T07:31:46;100516.29;;;16.75;48.33
47742;BME280;33504;52.066;6.096;2023-08-30T07:34:13;100510.08;;;16.99;48.47
47742;BME280;33504;52.066;6.096;2023-08-30T07:36:40;100502.15;;;16.87;48.83
47742;BME280;33504;52.066;6.096;2023-08-30T07:39:07;100503.62;;;16.36;49.88
47742;BME280;33504;52.066;6.096;2023-08-30T07:41:34;100503.61;;;16.77;49.42
47742;BME280;33504;52.066;6.096;2023-08-30T07:44:01;100502.64;;;17.09;49.32
47742;BME280;33504;52.066;6.096;2023-08-30T07:46:28;100498.22;;;16.91;49.37
47742;BME280;33504;52.066;6.096;2023-08-30T07:48:56;100498.40;;;16.87;50.06
47742;BME280;33504;52.066;6.096;2023-08-30T07:51:23;100495.50;;;16.61;50.50
47742;BME280;33504;52.066;6.096;2023-08-30T07:53:50;100493.88;;;16.48;50.62
47742;BME280;33504;52.066;6.096;2023-08-30T07:56:17;100489.62;;;16.32;51.06
47742;BME280;33504;52.066;6.096;2023-08-30T07:58:44;100494.52;;;16.06;52.31
47742;BME280;33504;52.066;6.096;2023-08-30T08:01:10;100493.05;;;15.09;54.12
47742;BME280;33504;52.066;6.096;2023-08-30T08:03:38;100491.97;;;15.51;53.35
47742;BME280;33504;52.066;6.096;2023-08-30T08:06:05;100491.10;;;15.84;53.58
47742;BME280;33504;52.066;6.096;2023-08-30T08:08:32;100489.17;;;15.88;53.15
47742;BME280;33504;52.066;6.096;2023-08-30T08:10:59;100488.53;;;16.04;53.92
47742;BME280;33504;52.066;6.096;2023-08-30T08:13:26;100486.80;;;15.30;54.19
47742;BME280;33504;52.066;6.096;2023-08-30T08:15:56;100492.89;;;15.02;55.48
47742;BME280;33504;52.066;6.096;2023-08-30T08:18:23;100495.12;;;15.51;54.76
47742;BME280;33504;52.066;6.096;2023-08-30T08:20:50;100492.71;;;15.02;55.60
47742;BME280;33504;52.066;6.096;2023-08-30T08:23:17;100492.16;;;15.54;54.86
47742;BME280;33504;52.066;6.096;2023-08-30T08:25:44;100494.13;;;14.89;55.55
47742;BME280;33504;52.066;6.096;2023-08-30T08:28:11;100488.93;;;15.40;54.92
47742;BME280;33504;52.066;6.096;2023-08-30T08:30:38;100493.31;;;14.86;55.75
47742;BME280;33504;52.066;6.096;2023-08-30T08:33:06;100475.62;;;14.61;56.13
47742;BME280;33504;52.066;6.096;2023-08-30T08:35:33;100472.17;;;15.23;55.94
47742;BME280;33504;52.066;6.096;2023-08-30T08:38:00;100459.84;;;15.10;56.13
47742;BME280;33504;52.066;6.096;2023-08-30T08:40:28;100461.96;;;14.38;57.62
47742;BME280;33504;52.066;6.096;2023-08-30T08:42:55;100459.91;;;14.26;58.06
47742;BME280;33504;52.066;6.096;2023-08-30T08:45:23;100459.11;;;14.08;58.32
47742;BME280;33504;52.066;6.096;2023-08-30T08:47:51;100458.92;;;14.69;57.86
47742;BME280;33504;52.066;6.096;2023-08-30T08:50:18;100454.67;;;14.60;57.72
47742;BME280;33504;52.066;6.096;2023-08-30T08:52:45;100452.03;;;13.94;59.65
47742;BME280;33504;52.066;6.096;2023-08-30T08:55:14;100449.93;;;14.18;59.35
47742;BME280;33504;52.066;6.096;2023-08-30T08:57:42;100449.51;;;14.07;59.49
47742;BME280;33504;52.066;6.096;2023-08-30T09:00:11;100449.92;;;13.91;60.77
47742;BME280;33504;52.066;6.096;2023-08-30T09:02:39;100440.83;;;13.95;60.45
47742;BME280;33504;52.066;6.096;2023-08-30T09:05:09;100437.03;;;13.88;60.60
47742;BME280;33504;52.066;6.096;2023-08-30T09:07:37;100437.50;;;14.75;59.62
47742;BME280;33504;52.066;6.096;2023-08-30T09:10:05;100439.59;;;15.05;58.63
47742;BME280;33504;52.066;6.096;2023-08-30T09:12:32;100438.89;;;14.12;59.28
47742;BME280;33504;52.066;6.096;2023-08-30T09:15:01;100442.32;;;14.38;59.47
47742;BME280;33504;52.066;6.096;2023-08-30T09:17:36;100437.00;;;15.03;58.92
47742;BME280;33504;52.066;6.096;2023-08-30T09:20:08;100433.60;;;14.32;59.72
47742;BME280;33504;52.066;6.096;2023-08-30T09:22:37;100436.09;;;14.49;59.68
47742;BME280;33504;52.066;6.096;2023-08-30T09:25:04;100433.56;;;14.61;59.31
47742;BME280;33504;52.066;6.096;2023-08-30T09:27:32;100429.23;;;14.75;58.48
47742;BME280;33504;52.066;6.096;2023-08-30T09:29:59;100426.90;;;15.17;58.42
47742;BME280;33504;52.066;6.096;2023-08-30T09:32:26;100424.84;;;15.41;58.44
47742;BME280;33504;52.066;6.096;2023-08-30T09:34:53;100419.02;;;14.96;58.40
47742;BME280;33504;52.066;6.096;2023-08-30T09:37:21;100419.11;;;15.05;58.47
47742;BME280;33504;52.066;6.096;2023-08-30T09:39:49;100418.69;;;15.45;57.84
47742;BME280;33504;52.066;6.096;2023-08-30T09:42:16;100415.90;;;15.11;58.95
47742;BME280;33504;52.066;6.096;2023-08-30T09:44:44;100409.85;;;15.48;58.22
47742;BME280;33504;52.066;6.096;2023-08-30T09:47:13;100407.42;;;15.20;58.27
47742;BME280;33504;52.066;6.096;2023-08-30T09:49:43;100401.70;;;15.17;58.60
47742;BME280;33504;52.066;6.096;2023-08-30T09:52:10;100399.35;;;15.12;58.81
47742;BME280;33504;52.066;6.096;2023-08-30T09:54:39;100396.27;;;15.11;58.96
47742;BME280;33504;52.066;6.096;2023-08-30T09:57:07;100395.44;;;15.29;59.05
47742;BME280;33504;52.066;6.096;2023-08-30T09:59:34;100389.05;;;15.08;59.27
47742;BME280;33504;52.066;6.096;2023-08-30T10:02:02;100387.08;;;15.32;58.30
47742;BME280;33504;52.066;6.096;2023-08-30T10:04:29;100386.91;;;15.65;58.08
47742;BME280;33504;52.066;6.096;2023-08-30T10:06:58;100383.53;;;15.47;58.73
47742;BME280;33504;52.066;6.096;2023-08-30T10:09:25;100378.42;;;15.50;58.58
47742;BME280;33504;52.066;6.096;2023-08-30T10:11:54;100377.03;;;15.47;57.95
47742;BME280;33504;52.066;6.096;2023-08-30T10:14:22;100372.68;;;15.86;58.27
47742;BME280;33504;52.066;6.096;2023-08-30T10:16:51;100373.08;;;16.00;58.08
47742;BME280;33504;52.066;6.096;2023-08-30T10:19:26;100373.74;;;15.50;58.49
47742;BME280;33504;52.066;6.096;2023-08-30T10:22:00;100378.38;;;15.89;58.05
47742;BME280;33504;52.066;6.096;2023-08-30T10:24:28;100371.58;;;16.09;57.70
47742;BME280;33504;52.066;6.096;2023-08-30T10:26:56;100377.46;;;15.71;58.55
47742;BME280;33504;52.066;6.096;2023-08-30T10:29:24;100381.35;;;16.10;57.90
47742;BME280;33504;52.066;6.096;2023-08-30T10:31:52;100382.54;;;16.18;57.86
47742;BME280;33504;52.066;6.096;2023-08-30T10:34:19;100380.49;;;16.16;57.35
47742;BME280;33504;52.066;6.096;2023-08-30T10:36:56;100378.06;;;15.68;58.55
47742;BME280;33504;52.066;6.096;2023-08-30T10:39:33;100373.95;;;15.08;58.40
47742;BME280;33504;52.066;6.096;2023-08-30T10:42:00;100372.25;;;15.74;58.85
47742;BME280;33504;52.066;6.096;2023-08-30T10:44:27;100372.29;;;15.55;59.80
47742;BME280;33504;52.066;6.096;2023-08-30T10:46:54;100381.55;;;16.03;59.10
47742;BME280;33504;52.066;6.096;2023-08-30T10:49:22;100375.53;;;15.49;60.14
47742;BME280;33504;52.066;6.096;2023-08-30T10:51:57;100374.35;;;16.01;59.08
47742;BME280;33504;52.066;6.096;2023-08-30T10:54:25;100373.93;;;16.76;57.69
47742;BME280;33504;52.066;6.096;2023-08-30T10:56:56;100370.54;;;16.72;57.94
47742;BME280;33504;52.066;6.096;2023-08-30T10:59:23;100371.41;;;16.35;58.12
47742;BME280;33504;52.066;6.096;2023-08-30T11:01:52;100373.86;;;16.83;57.34
47742;BME280;33504;52.066;6.096;2023-08-30T11:04:20;100368.75;;;17.09;56.46
47742;BME280;33504;52.066;6.096;2023-08-30T11:06:49;100375.29;;;16.99;56.79
47742;BME280;33504;52.066;6.096;2023-08-30T11:09:18;100374.52;;;17.51;56.05
47742;BME280;33504;52.066;6.096;2023-08-30T11:11:45;100374.14;;;17.47;56.39
47742;BME280;33504;52.066;6.096;2023-08-30T11:14:13;100372.32;;;17.36;55.94
47742;BME280;33504;52.066;6.096;2023-08-30T11:16:40;100367.45;;;18.41;55.22
47742;BME280;33504;52.066;6.096;2023-08-30T11:19:08;100360.18;;;18.16;55.71
47742;BME280;33504;52.066;6.096;2023-08-30T11:21:37;100361.23;;;18.75;54.56
47742;BME280;33504;52.066;6.096;2023-08-30T11:24:06;100358.47;;;18.46;55.23
47742;BME280;33504;52.066;6.096;2023-08-30T11:26:33;100362.07;;;19.17;53.50
47742;BME280;33504;52.066;6.096;2023-08-30T11:29:04;100348.88;;;19.75;52.64
47742;BME280;33504;52.066;6.096;2023-08-30T11:31:31;100349.53;;;20.33;53.54
47742;BME280;33504;52.066;6.096;2023-08-30T11:33:59;100352.80;;;20.08;51.68
47742;BME280;33504;52.066;6.096;2023-08-30T11:36:28;100351.35;;;19.95;50.91
47742;BME280;33504;52.066;6.096;2023-08-30T11:38:56;100349.61;;;19.73;50.79
47742;BME280;33504;52.066;6.096;2023-08-30T11:41:24;100348.16;;;19.84;51.25
47742;BME280;33504;52.066;6.096;2023-08-30T11:43:51;100355.87;;;19.49;51.51
47742;BME280;33504;52.066;6.096;2023-08-30T11:46:19;100357.57;;;19.58;51.53
47742;BME280;33504;52.066;6.096;2023-08-30T11:48:48;100354.48;;;19.63;51.84
47742;BME280;33504;52.066;6.096;2023-08-30T11:51:17;100352.09;;;19.71;52.25
47742;BME280;33504;52.066;6.096;2023-08-30T11:53:45;100351.56;;;19.83;52.19
47742;BME280;33504;52.066;6.096;2023-08-30T11:56:13;100351.38;;;19.99;52.12
47742;BME280;33504;52.066;6.096;2023-08-30T11:58:40;100355.02;;;20.01;51.33
47742;BME280;33504;52.066;6.096;2023-08-30T12:01:07;100354.25;;;19.67;51.58
47742;BME280;33504;52.066;6.096;2023-08-30T12:03:35;100358.64;;;19.72;50.90
47742;BME280;33504;52.066;6.096;2023-08-30T12:06:02;100361.17;;;19.95;50.94
47742;BME280;33504;52.066;6.096;2023-08-30T12:08:31;100360.69;;;19.91;51.11
47742;BME280;33504;52.066;6.096;2023-08-30T12:10:58;100364.78;;;20.01;51.16
47742;BME280;33504;52.066;6.096;2023-08-30T12:13:26;100369.01;;;20.42;51.10
47742;BME280;33504;52.066;6.096;2023-08-30T12:15:55;100367.97;;;20.57;50.52
47742;BME280;33504;52.066;6.096;2023-08-30T12:18:22;100372.01;;;20.76;50.13
47742;BME280;33504;52.066;6.096;2023-08-30T12:20:53;100370.59;;;20.53;49.22
47742;BME280;33504;52.066;6.096;2023-08-30T12:23:22;100374.82;;;20.85;48.12
47742;BME280;33504;52.066;6.096;2023-08-30T12:26:06;100370.30;;;20.66;46.25
47742;BME280;33504;52.066;6.096;2023-08-30T12:28:34;100374.50;;;20.56;47.46
47742;BME280;33504;52.066;6.096;2023-08-30T12:31:02;100374.96;;;20.55;46.68
47742;BME280;33504;52.066;6.096;2023-08-30T12:33:29;100378.43;;;20.74;46.62
47742;BME280;33504;52.066;6.096;2023-08-30T12:35:56;100386.80;;;20.83;46.59
47742;BME280;33504;52.066;6.096;2023-08-30T12:38:24;100388.69;;;20.65;46.68
47742;BME280;33504;52.066;6.096;2023-08-30T12:40:52;100390.59;;;20.57;46.35
47742;BME280;33504;52.066;6.096;2023-08-30T12:43:21;100389.47;;;20.64;46.31
47742;BME280;33504;52.066;6.096;2023-08-30T12:45:48;100394.14;;;20.53;46.09
47742;BME280;33504;52.066;6.096;2023-08-30T12:48:17;100398.22;;;20.58;45.41
47742;BME280;33504;52.066;6.096;2023-08-30T12:50:46;100398.68;;;20.34;44.57
47742;BME280;33504;52.066;6.096;2023-08-30T12:53:13;100399.30;;;20.50;45.35